< < Back
Terminal Aerodrome Forecast


Current Version              Previous Versions:   1  2  3  4  5  6  7  8  9  

Terminal Aerodrome Forecast

749
FTUS42 KCHS 310523
TAFCHS
TAF
KCHS 310523Z 3106/0106 24005KT P6SM SCT015 BKN070
     FM311700 20010KT P6SM VCTS SCT035CB BKN140
     FM010000 23007KT P6SM SCT025 BKN180=



Latest METAR

311
SAUS80 KWBC 311900 RRB
MTRCHS
METAR KCHS 311856Z 20007KT 10SM FEW014 FEW045 BKN180 32/24 A2990 RMK AO2
SLP126 CB DSNT SW T03170244


USA.gov is the U.S. government's official web portal to all federal, state and local government web resources and services.